createdAt,value
2018-06-25T00:02:40.779Z,15.25
2018-06-25T00:07:33.743Z,15.24
2018-06-25T00:12:26.741Z,15.21
2018-06-25T00:17:19.783Z,15.19
2018-06-25T00:22:12.751Z,15.17
2018-06-25T00:27:05.773Z,15.15
2018-06-25T00:31:58.772Z,15.11
2018-06-25T00:36:51.737Z,15.08
2018-06-25T00:41:44.832Z,15.02
2018-06-25T00:46:37.815Z,14.97
2018-06-25T00:51:30.869Z,14.94
2018-06-25T00:56:23.906Z,14.92
2018-06-25T01:01:16.867Z,14.88
2018-06-25T01:06:09.950Z,14.84
2018-06-25T01:11:03.019Z,14.79
2018-06-25T01:15:55.979Z,14.74
2018-06-25T01:20:49.052Z,14.72
2018-06-25T01:25:42.074Z,14.70
2018-06-25T01:30:35.026Z,14.71
2018-06-25T01:35:28.055Z,14.69
2018-06-25T01:40:21.019Z,14.69
2018-06-25T01:45:13.966Z,14.69
2018-06-25T01:50:06.985Z,14.70
2018-06-25T01:54:59.990Z,14.69
2018-06-25T01:59:52.909Z,14.63
2018-06-25T02:04:45.970Z,14.60
2018-06-25T02:09:39.007Z,14.60
2018-06-25T02:14:32.040Z,14.61
2018-06-25T02:19:25.104Z,14.61
2018-06-25T02:24:18.130Z,14.57
2018-06-25T02:29:11.171Z,14.56
2018-06-25T02:34:04.927Z,14.55
2018-06-25T02:38:57.964Z,14.55
2018-06-25T02:43:50.891Z,14.56
2018-06-25T02:48:43.836Z,14.57
2018-06-25T02:53:36.831Z,14.53
2018-06-25T02:58:29.811Z,14.50
2018-06-25T03:03:22.716Z,14.46
2018-06-25T03:08:15.706Z,14.39
2018-06-25T03:13:08.784Z,14.40
2018-06-25T03:18:01.929Z,14.42
2018-06-25T03:22:54.954Z,14.41
2018-06-25T03:27:48.100Z,14.37
2018-06-25T03:32:41.100Z,14.34
2018-06-25T03:37:34.119Z,14.38
2018-06-25T03:42:27.394Z,14.40
2018-06-25T03:47:20.527Z,14.35
2018-06-25T03:52:13.451Z,14.33
2018-06-25T03:57:06.500Z,14.32
2018-06-25T04:01:59.638Z,14.32
2018-06-25T04:06:52.639Z,14.32
2018-06-25T04:11:45.679Z,14.34
2018-06-25T04:16:38.781Z,14.35
2018-06-25T04:21:32.848Z,14.36
2018-06-25T04:26:25.824Z,14.36
2018-06-25T04:31:18.895Z,14.37
2018-06-25T04:36:11.904Z,14.38
2018-06-25T04:41:05.044Z,14.43
2018-06-25T04:45:58.076Z,14.47
2018-06-25T04:50:51.213Z,14.46
2018-06-25T04:55:44.208Z,14.48
2018-06-25T05:00:37.358Z,14.48
2018-06-25T05:05:30.385Z,14.42
2018-06-25T05:10:23.378Z,14.39
2018-06-25T05:15:16.418Z,14.33
2018-06-25T05:20:09.524Z,14.24
2018-06-25T05:25:02.569Z,14.27
2018-06-25T05:29:55.754Z,14.30
2018-06-25T05:34:48.870Z,14.25
2018-06-25T05:39:41.995Z,14.14
2018-06-25T05:44:35.005Z,14.08
2018-06-25T05:49:27.992Z,13.96
2018-06-25T05:54:21.155Z,13.93
2018-06-25T05:59:14.110Z,13.91
2018-06-25T06:04:07.170Z,13.97
2018-06-25T06:09:00.362Z,14.01
2018-06-25T06:13:53.379Z,14.05
2018-06-25T06:18:46.589Z,14.02
2018-06-25T06:23:39.642Z,13.92
2018-06-25T06:28:32.643Z,13.84
2018-06-25T06:33:25.701Z,13.77
2018-06-25T06:38:18.708Z,13.76
2018-06-25T06:43:11.683Z,13.79
2018-06-25T06:48:04.937Z,13.80
2018-06-25T06:52:57.899Z,13.77
2018-06-25T06:57:50.997Z,13.79
2018-06-25T07:02:43.924Z,13.83
2018-06-25T07:07:36.893Z,13.89
2018-06-25T07:12:29.928Z,13.93
2018-06-25T07:17:23.111Z,13.99
2018-06-25T07:22:16.153Z,14.03
2018-06-25T07:27:09.321Z,14.04
2018-06-25T07:32:02.351Z,14.06
2018-06-25T07:36:55.391Z,14.10
2018-06-25T07:41:48.574Z,14.16
2018-06-25T07:46:41.757Z,14.21
2018-06-25T07:51:34.913Z,14.24
2018-06-25T07:56:28.032Z,14.32
2018-06-25T08:01:21.257Z,14.31
2018-06-25T08:06:14.359Z,14.34
2018-06-25T08:11:07.438Z,14.50
2018-06-25T08:16:00.603Z,14.68
2018-06-25T08:20:53.780Z,14.78
2018-06-25T08:25:46.754Z,14.85
2018-06-25T08:30:39.737Z,14.93
2018-06-25T08:35:32.760Z,14.90
2018-06-25T08:40:25.899Z,14.94
2018-06-25T08:45:18.956Z,15.07
2018-06-25T08:50:12.062Z,15.01
2018-06-25T08:55:05.277Z,15.12
2018-06-25T08:59:58.383Z,15.25
2018-06-25T09:04:51.439Z,15.47
2018-06-25T09:09:44.575Z,15.51
2018-06-25T09:14:37.711Z,15.62
2018-06-25T09:19:30.728Z,15.73
2018-06-25T09:24:23.816Z,15.73
2018-06-25T09:29:16.744Z,15.88
2018-06-25T09:34:15.384Z,15.96
2018-06-25T09:39:10.389Z,15.97
2018-06-25T09:44:03.570Z,16.09
2018-06-25T09:48:56.672Z,16.21
2018-06-25T09:53:49.566Z,16.49
2018-06-25T09:58:42.479Z,16.56
2018-06-25T10:03:35.505Z,16.68
2018-06-25T10:08:28.406Z,16.87
2018-06-25T10:13:21.520Z,16.96
2018-06-25T10:18:14.530Z,17.27
2018-06-25T10:23:07.565Z,17.44
2018-06-25T10:28:00.589Z,17.55
2018-06-25T10:32:53.583Z,17.59
2018-06-25T10:37:46.625Z,17.65
2018-06-25T10:42:39.670Z,17.79
2018-06-25T10:47:32.653Z,18.00
2018-06-25T10:52:25.808Z,18.28
2018-06-25T10:57:18.897Z,18.67
2018-06-25T11:02:11.989Z,18.88
2018-06-25T11:07:05.032Z,19.12
2018-06-25T11:11:58.067Z,19.42
2018-06-25T11:16:51.433Z,19.72
2018-06-25T11:21:44.460Z,19.63
2018-06-25T11:26:37.764Z,19.89
2018-06-25T11:31:30.801Z,20.11
2018-06-25T11:36:23.742Z,20.25
2018-06-25T11:41:16.798Z,20.57
2018-06-25T11:46:09.801Z,20.84
2018-06-25T11:51:02.829Z,20.92
2018-06-25T11:55:55.864Z,20.89
2018-06-25T12:00:48.916Z,21.04
2018-06-25T12:05:41.960Z,21.37
2018-06-25T12:10:35.073Z,21.56
2018-06-25T12:15:28.095Z,21.58
2018-06-25T12:20:21.183Z,21.77
2018-06-25T12:25:14.460Z,21.81
2018-06-25T12:30:07.704Z,21.71
2018-06-25T12:35:01.559Z,21.65
2018-06-25T12:39:54.811Z,21.63
2018-06-25T12:44:47.804Z,21.75
2018-06-25T12:49:40.953Z,21.82
2018-06-25T12:54:34.604Z,21.90
2018-06-25T12:59:27.706Z,21.97
2018-06-25T13:04:21.168Z,22.08
2018-06-25T13:09:14.346Z,22.22
2018-06-25T13:14:08.125Z,22.29
2018-06-25T13:19:01.391Z,22.41
2018-06-25T13:23:54.394Z,22.46
2018-06-25T13:28:47.399Z,22.43
2018-06-25T13:33:40.577Z,22.50
2018-06-25T13:38:33.629Z,22.60
2018-06-25T13:43:26.725Z,22.67
2018-06-25T13:48:19.883Z,22.70
2018-06-25T13:53:13.041Z,22.76
2018-06-25T13:58:06.260Z,22.86
2018-06-25T14:02:59.313Z,22.93
2018-06-25T14:07:52.639Z,22.93
2018-06-25T14:12:45.637Z,22.94
2018-06-25T14:17:38.803Z,22.88
2018-06-25T14:22:31.838Z,22.88
2018-06-25T14:27:24.804Z,22.92
2018-06-25T14:32:23.441Z,22.98
2018-06-25T14:37:16.411Z,22.99
2018-06-25T14:42:09.401Z,23.01
2018-06-25T14:47:02.383Z,23.04
2018-06-25T14:51:55.350Z,23.07
2018-06-25T14:56:48.347Z,23.10
2018-06-25T15:01:41.376Z,23.08
2018-06-25T15:06:34.401Z,23.09
2018-06-25T15:11:27.444Z,23.11
2018-06-25T15:16:20.544Z,23.12
2018-06-25T15:21:13.604Z,23.06
2018-06-25T15:26:06.757Z,23.00
2018-06-25T15:30:59.903Z,22.98
2018-06-25T15:35:53.022Z,22.95
2018-06-25T15:40:46.094Z,22.91
2018-06-25T15:45:39.137Z,22.87
2018-06-25T15:50:32.157Z,22.82
2018-06-25T15:55:25.347Z,22.77
2018-06-25T16:00:18.349Z,22.71
2018-06-25T16:05:11.404Z,22.61
2018-06-25T16:10:04.632Z,22.53
2018-06-25T16:14:57.589Z,22.50
2018-06-25T16:19:50.737Z,22.48
2018-06-25T16:24:43.734Z,22.44
2018-06-25T16:29:36.871Z,22.38
2018-06-25T16:34:30.077Z,22.33
2018-06-25T16:39:23.173Z,22.29
2018-06-25T16:44:16.143Z,22.24
2018-06-25T16:49:09.172Z,22.17
2018-06-25T16:54:02.283Z,22.15
2018-06-25T16:58:55.284Z,22.08
2018-06-25T17:03:48.508Z,22.02
2018-06-25T17:08:41.596Z,21.98
2018-06-25T17:13:34.669Z,21.96
2018-06-25T17:18:27.743Z,21.95
2018-06-25T17:23:20.862Z,21.92
2018-06-25T17:28:13.936Z,21.87
2018-06-25T17:33:06.930Z,21.84
2018-06-25T17:38:00.130Z,21.80
2018-06-25T17:42:53.260Z,21.77
2018-06-25T17:47:46.306Z,21.72
2018-06-25T17:52:39.483Z,21.68
2018-06-25T17:57:32.870Z,21.61
2018-06-25T18:02:26.013Z,21.54
2018-06-25T18:07:19.074Z,21.47
2018-06-25T18:12:12.182Z,21.41
2018-06-25T18:17:05.256Z,21.30
2018-06-25T18:21:58.664Z,21.21
2018-06-25T18:26:51.790Z,21.13
2018-06-25T18:31:45.110Z,21.07
2018-06-25T18:36:38.111Z,20.99
2018-06-25T18:41:31.063Z,20.91
2018-06-25T18:46:24.431Z,20.84
2018-06-25T18:51:17.537Z,20.76
2018-06-25T18:56:10.851Z,20.71
2018-06-25T19:01:03.801Z,20.63
2018-06-25T19:05:56.990Z,20.54
2018-06-25T19:10:50.929Z,20.45
2018-06-25T19:15:44.169Z,20.37
2018-06-25T19:20:37.485Z,20.30
2018-06-25T19:25:30.951Z,20.24
2018-06-25T19:30:24.095Z,20.15
2018-06-25T19:35:17.270Z,20.08
2018-06-25T19:40:10.388Z,20.00
2018-06-25T19:45:03.949Z,19.95
2018-06-25T19:49:57.115Z,19.91
2018-06-25T19:54:50.243Z,19.87
2018-06-25T19:59:43.485Z,19.79
2018-06-25T20:04:36.473Z,19.71
2018-06-25T20:09:29.520Z,19.63
2018-06-25T20:14:22.549Z,19.57
2018-06-25T20:19:15.875Z,19.50
2018-06-25T20:24:09.167Z,19.44
2018-06-25T20:29:02.233Z,19.37
2018-06-25T20:33:55.432Z,19.31
2018-06-25T20:38:48.410Z,19.25
2018-06-25T20:43:41.431Z,19.19
2018-06-25T20:48:34.584Z,19.12
2018-06-25T20:53:27.580Z,19.04
2018-06-25T20:58:20.590Z,18.96
2018-06-25T21:03:13.568Z,18.94
2018-06-25T21:08:06.625Z,18.87
2018-06-25T21:12:59.727Z,18.81
2018-06-25T21:17:52.802Z,18.79
2018-06-25T21:22:45.877Z,18.75
2018-06-25T21:27:38.865Z,18.70
2018-06-25T21:32:32.021Z,18.64
2018-06-25T21:37:25.057Z,18.57
2018-06-25T21:42:18.026Z,18.52
2018-06-25T21:47:11.296Z,18.46
2018-06-25T21:52:04.381Z,18.40
2018-06-25T21:56:57.358Z,18.32
2018-06-25T22:01:52.485Z,18.24
2018-06-25T22:06:45.409Z,18.18
2018-06-25T22:11:38.421Z,18.12
2018-06-25T22:16:31.526Z,18.07
2018-06-25T22:21:25.324Z,18.02
2018-06-25T22:26:18.358Z,17.96
2018-06-25T22:31:11.393Z,17.94
2018-06-25T22:36:04.524Z,17.88
2018-06-25T22:40:57.604Z,17.81
2018-06-25T22:45:51.022Z,17.74
2018-06-25T22:50:44.021Z,17.67
2018-06-25T22:55:37.042Z,17.61
2018-06-25T23:00:30.438Z,17.52
2018-06-25T23:05:23.552Z,17.47
2018-06-25T23:10:16.554Z,17.41
2018-06-25T23:15:09.627Z,17.36
2018-06-25T23:20:02.749Z,17.31
2018-06-25T23:24:55.831Z,17.26
2018-06-25T23:29:48.856Z,17.21
2018-06-25T23:34:41.872Z,17.17
2018-06-25T23:39:34.911Z,17.13
2018-06-25T23:44:27.876Z,17.08
2018-06-25T23:49:20.982Z,17.03
2018-06-25T23:54:13.947Z,16.98
2018-06-25T23:59:07.022Z,16.92
